Aérodrome :
LOGIN :

S'inscrire | Disclaimer

   EN    FR    IT 

 










Légende :    VFR   VFR Marginal   IFR   IFR Intensif   IFR Très Intensif
Visi : 
Plafond : 
>= 8 km
>= 3000ft
5 à 8 km
1000 à 3000 ft
1500m à 5 km
500 à 1000 ft
800 à 1500m
200 à 500 ft
< 800m
< 200 ft
Symboles :   Orages  Brouillard  Fortes neiges  Fortes précipitations  Vent > 20 kt
SIGMETs :   Divers  Orages  Givrage  Turbulence  Onde Orograph.  Cendres Volcan.






- Altitude de l'aérodrome : 14 ft
- Code IATA : LXS


LGLM - Ifaistos

DERNIER METAR :
  • 021950Z 05014KT 9999 SCT010 BKN020 08/05 Q1015

METARs EXPIRÉS :
  • 021850Z 05014KT 9999 SCT010 BKN020 08/04 Q1014
  • 021750Z 05013KT 9999 SCT010 BKN020 08/04 Q1013
  • 021720Z 05015KT 9999 SCT010 BKN020 08/04 Q1012

TAF TAF LGLM
Valide du 02 à 18h jusqu'au 03 à 03h UTC


021700Z 0218/0303 05015G25KT 9999 FEW010 BKN020
TEMPO 0218/0224 6000 RA
PROB30
TEMPO 0218/0219 3000 TSRA FEW010 FEW018CB SCT010 BKN020
BECMG 0218/0220 04015KT



MET'MAP, la Météo Aéronautique d'un coup d'oeil ! - Copyright ORBIFLY Décembre 2007 - Disclaimer

ORBIFLY MET'MAP TEAM :

Programmation & Développement : Alexandra Zaïnal
Sur une idée originale de : Baudouin d'Aumeries
Assistance à la programmation : Marc-Olivier Méhu
Soutien technique & logistique : Manuel Goepfert

Contact : metmap@orbifly.com




SOURCES & CREDITS :

   NOAA